x

Buoy E01 - Central Maine Shelf (44032) Wave Buoy

1:04 - Wed 18th Jan 2017 All times are EST. -5 hours from GMT.

  • Sig Wave height 8.2ft
  • Peak Period 8s
  • Wind
    22mph, 29mph gusts
  • Sea Temp 45°f
  • Luft Temp 33°f
  • Sea Pressure 1017mb
  • Buoy E01 - Central Maine Shelf
  • Buoy E01 - Central Maine Shelf

More Historic Weather Station data

Upgrade to MSW Pro to gain access to the past 30 days of data for over 8000 Wavebouys and Weather Stations around the globe.

Join Pro

Comparision Forecast

View Surf forecast
   
Mi 01/18 1:04 8ft 8s 22 29 mph 1017mb 45f 33f
12:04 9ft 8s 22 27 mph 1017.5mb 45f 33f
11:04 8ft 8s 25 29 mph 1018mb 45f 33f
10:04 8ft 8s 25 29 mph 1018.9mb 45f 34f
9:04 7ft 6s 25 29 mph 1018.9mb 45f 35f
8:04 7ft 6s 25 29 mph 1018.7mb 45f 35f
7:04 6ft 6s 22 31 mph 1018.7mb 46f 35f
6:04 5.5ft 5s 25 29 mph 1018.5mb 46f 35f
5:04 5ft 5s 22 27 mph 1018.7mb 46f 35f
4:04 4.5ft 5s 20 25 mph 1019.2mb 46f 36f
3:04 4.5ft 5s 18 25 mph 1020mb 46f 35f
2:04 4ft 5s 18 22 mph 1020.9mb 46f 36f
1:04 4ft 5s 20 25 mph 1021.3mb 45f 37f
12:04 4ft 5s 18 22 mph 1021.8mb 46f 37f
Di 01/17 11:04 3.5ft 4s 18 22 mph 1022.2mb 46f 37f
10:04 2.5ft 4s 18 22 mph 1023.2mb 46f 36f
9:04 2.5ft 4s 18 22 mph 1023.5mb 46f 36f
8:04 2.5ft 3s 13 18 mph 1023.9mb 46f 37f
7:04 2ft 3s 16 20 mph 1023.6mb 46f 37f
6:04 1.6ft 3s 13 18 mph 1024mb 46f 37f
5:04 2ft 3s 13 16 mph 1024.2mb 46f 37f
4:04 2ft 3s 13 18 mph 1023.5mb 46f 36f
3:04 2ft 4s 11 16 mph 1023.4mb 46f 36f
2:04 2.5ft 6s 13 16 mph 1023mb 46f 36f
1:04 2.5ft 4s 11 13 mph 1023.3mb 46f 36f
12:04 2.5ft 3s 11 16 mph 1024.1mb 46f 36f
11:04 1.6ft 3s 13 18 mph 1024mb 46f 37f
10:04 2.5ft 3s 13 18 mph 1024.8mb 46f 37f
9:04 2ft 6s 16 18 mph 1024.6mb 46f 37f
8:04 2.5ft 5s 13 18 mph 1024.1mb 46f 37f
7:04 2.5ft 5s 13 18 mph 1022.9mb 45f 38f
6:04 2.5ft 5s 11 13 mph 1021.7mb 45f 38f
5:04 3ft 5s 11 13 mph 1021.3mb 45f 38f
4:04 3.5ft 6s 13 16 mph 1021mb 45f 38f
3:04 3ft 6s 13 16 mph 1021.3mb 45f 38f
2:04 4ft 6s 9 11 mph 1020.8mb 45f 38f
1:04 4.5ft 6s 11 13 mph 1019.7mb 45f 39f
12:04 5ft 6s 16 18 mph 1019.8mb 45f 39f
Mo 01/16 11:04 5.5ft 6s 16 20 mph 1020.5mb 45f 39f
10:04 6ft 6s 20 22 mph 1020.8mb 45f 40f
9:04 6ft 6s 22 29 mph 1021.1mb 45f 41f
8:04 6.5ft 6s 25 29 mph 1021.1mb 46f 41f
7:04 6ft 6s 27 31 mph 1021.5mb 46f 41f
6:04 6ft 6s 22 27 mph 1021.7mb 46f 40f
5:04 6ft 6s 25 29 mph 1021.8mb 46f 39f
4:04 6ft 6s 25 29 mph 1021.8mb 46f 38f
3:04 6ft 5s 27 31 mph 1022.1mb 46f 38f
2:04 5ft 5s 25 31 mph 1023.3mb 46f 37f
1:04 4.5ft 5s 25 29 mph 1023.8mb 46f 36f
12:04 3.5ft 4s 25 29 mph 1025.1mb 46f 35f
11:04 3ft 4s 20 25 mph 1027.2mb 46f 33f
10:04 2.5ft 3s 20 25 mph 1028.2mb 46f 32f
9:04 1.3ft 2s 16 20 mph 1028.4mb 46f 33f
8:04 1ft 5s 9 16 mph 1029.1mb 46f 31f
7:04 1ft 5s 7 11 mph 1029.5mb 46f 28f
6:04 1.3ft 11s 4 7 mph 1029.9mb 46f 27f
5:04 0.7ft  -  2 4 mph 1030.1mb 46f 25f
4:04 0.7ft  -  2 7 mph 1030.2mb 46f 25f
3:04 1ft 4s 4 7 mph 1030.3mb 46f 24f
2:04 1.3ft 3s 4 7 mph 1030.4mb 46f 24f
1:04 1.3ft 4s 9 13 mph 1030.1mb 46f 23f
12:04 1.6ft 3s 11 16 mph 1029.5mb 46f 24f
So 01/15 11:04 2ft 4s 16 18 mph 1029.1mb 46f 24f
10:04 2.5ft 4s 18 25 mph 1029.4mb 46f 25f
9:04 2.5ft 4s 20 25 mph 1029.2mb 46f 26f
8:04 2.5ft 4s 22 29 mph 1028.4mb 46f 28f
7:04 2.5ft 3s 20 27 mph 1028.5mb 46f 28f
6:04 2.5ft 4s 22 29 mph 1027.7mb 46f 29f
5:04 2.5ft 3s 22 29 mph 1026.8mb 46f 29f
4:04 2.5ft 4s 18 22 mph 1025.7mb 46f 30f
3:04 2.5ft 3s 16 22 mph 1024.7mb 46f 31f
2:04 2.5ft 3s 18 22 mph 1024.1mb 46f 30f
1:04 2.5ft 3s 18 25 mph 1023.7mb 46f 30f
12:04 2.5ft 4s 18 22 mph 1023.7mb 46f 29f
11:04 2.5ft 4s 18 22 mph 1024mb 46f 29f
10:04 3.5ft 4s 22 25 mph 1024.2mb 46f 30f
9:04 3.5ft 4s 25 31 mph 1023.8mb 46f 31f
8:04 2.5ft 5s 22 27 mph 1023.3mb 46f 31f
7:04 3.5ft 6s 20 22 mph 1022.6mb 46f 29f
6:04 3.5ft 5s 13 18 mph 1022.3mb 46f 29f
5:04 4.5ft 5s 13 16 mph 1022.1mb 46f 29f
4:04 4ft 5s 13 18 mph 1021.7mb 45f 29f
3:04 4.5ft 5s 16 20 mph 1021.7mb 45f 29f
2:04 4ft 5s 13 18 mph 1022mb 45f 30f
1:04 4.5ft 5s 22 29 mph 1022.1mb 45f 32f
12:04 5ft 5s 22 27 mph 1022.6mb 45f 33f
Sa 01/14 11:04 4.5ft 5s 22 27 mph 1023.6mb 45f 34f
10:04 3.5ft 5s 20 25 mph 1024.8mb 45f 33f
9:04 3ft 4s 20 25 mph 1026mb 45f 33f